Flight Track Log - Related Links

Times and Time Zones

All times are in EDT time to prevent confusion due to time zone crossing. See the OPT732 flight status page for this flight to view local times or setup timezone preferences in your user account.

Time Position Orientation Groundspeed Altitude Reporting Facility
EDT Latitude Longitude Course Direction KTS MPH feet Rate Location/Type
Sun 12:44:45 PM 34.9917 -82.2436 289° West 311 358 6,600  Level Atlanta Center
Sun 12:45:45 PM 35.0136 -82.3344 286° West 339 390 9,600 2,800 Climbing Atlanta Center
Sun 12:46:45 PM 35.0422 -82.4406 288° West 339 390 12,200 2,500 Climbing Atlanta Center
Sun 12:48:45 PM 35.1056 -82.6678 289° West 349 402 17,100 2,433 Climbing Atlanta Center
Sun 12:49:00 PM 35.1192 -82.9920 289° West  Level FlightAware Approximate
Sun 12:49:45 PM 35.1403 -82.7842 290° West 355 409 19,500  Level Atlanta Center
Sun 12:50:00 PM 35.1568 -83.1236 289° West  Level FlightAware Approximate
Sun 12:50:45 PM 35.1769 -82.9233 288° West 377 434 22,200  Level Atlanta Center
Sun 12:51:45 PM 35.2092 -83.0372 289° West 387 445 24,400 2,250 Climbing Atlanta Center
Sun 12:52:45 PM 35.2436 -83.1664 288° West 400 460 26,700 1,950 Climbing Atlanta Center
Sun 12:53:45 PM 35.2822 -83.3086 288° West 419 482 28,300 1,650 Climbing Atlanta Center
Sun 12:54:45 PM 35.3225 -83.4583 288° West 441 507 30,000 1,250 Climbing Atlanta Center
Sun 12:55:45 PM 35.3650 -83.6211 288° West 475 547 30,800 950 Climbing Atlanta Center
Sun 12:56:45 PM 35.4114 -83.7864 289° West 506 582 31,900 1,200 Climbing Atlanta Center
Sun 12:57:45 PM 35.4553 -83.9622 287° West 525 604 33,200 1,450 Climbing Atlanta Center
Sun 12:58:45 PM 35.5014 -84.1331 288° West 531 611 34,800 900 Climbing Atlanta Center
Sun 12:59:45 PM 35.5469 -84.3042 288° West 536 617 35,000 450 Climbing Atlanta Center
Sun 01:00:45 PM 35.5922 -84.4831 287° West 536 617 35,700 950 Climbing Atlanta Center
Sun 01:01:45 PM 35.6144 -84.6544 279° West 527 606 36,900 1,200 Climbing Atlanta Center
Sun 01:02:45 PM 35.5739 -84.8150 253° West 497 572 38,100 1,400 Climbing Atlanta Center
Sun 01:03:45 PM 35.5228 -84.9728 248° West 491 565 39,700 1,600 Climbing Atlanta Center
Sun 01:04:45 PM 35.4800 -85.1175 250° West 477 549 41,300 1,300 Climbing Atlanta Center
Sun 01:05:45 PM 35.4325 -85.2647 248° West 472 543 42,300 850 Climbing Atlanta Center
Sun 01:06:45 PM 35.3872 -85.4092 249° West 467 537 43,000 350 Climbing Atlanta Center
Sun 01:07:45 PM 35.3417 -85.5561 249° West 467 537 43,000  Level Atlanta Center
Sun 01:08:45 PM 35.2939 -85.7081 249° West 472 543 43,000  Level Atlanta Center
Sun 01:09:45 PM 35.2414 -85.8722 249° West 472 543 43,000  Level Atlanta Center
Sun 01:10:45 PM 35.1931 -86.0286 249° West 479 551 43,000  Level Atlanta Center
Sun 01:11:45 PM 35.1492 -86.1700 249° West 492 566 43,000  Level Atlanta Center
Sun 01:12:32 PM 35.1056 -86.2908 246° West 495 570 43,000  Level Memphis Center
Sun 01:13:32 PM 35.0564 -86.4481 249° West 489 563 43,000  Level Memphis Center
Sun 01:14:32 PM 35.0047 -86.6050 248° West 494 568 43,000  Level Memphis Center
Sun 01:15:33 PM 34.9553 -86.7619 249° West 499 574 43,000  Level Memphis Center
Sun 01:16:32 PM 34.8972 -86.9289 247° West 494 568 43,000  Level Memphis Center
Sun 01:17:32 PM 34.8431 -87.0853 247° West 500 575 43,000  Level Memphis Center
Sun 01:18:32 PM 34.7928 -87.2392 248° West 492 566 43,000 -500 Level Memphis Center
Sun 01:19:32 PM 34.7400 -87.3825 246° West 481 554 42,000 -1,200 Descending Memphis Center
Sun 01:20:32 PM 34.6958 -87.5406 251° West 481 554 40,600 -1,450 Descending Memphis Center
Sun 01:21:32 PM 34.6469 -87.6939 249° West 481 554 39,100 -1,300 Descending Memphis Center
Sun 01:22:32 PM 34.6061 -87.8314 250° West 487 560 38,000 -1,200 Descending Memphis Center
Sun 01:23:32 PM 34.5925 -87.9881 264° West 476 548 36,700 -1,250 Descending Memphis Center
Sun 01:24:32 PM 34.6081 -88.1517 277° West 482 555 35,500 -1,550 Descending Memphis Center
Sun 01:25:32 PM 34.6192 -88.3256 274° West 487 560 33,600 -1,800 Descending Memphis Center
Sun 01:26:32 PM 34.5289 -88.4161 220° Southwest 385 443 31,900 -1,750 Descending Memphis Center
Sun 01:27:32 PM 34.4361 -88.4911 214° Southwest 378 435 30,100 -1,850 Descending Memphis Center
Sun 01:28:32 PM 34.4361 -88.6297 270° West 374 430 28,200 -1,850 Descending Memphis Center
Sun 01:29:32 PM 34.4942 -88.7544 299° West 369 425 26,400 -1,900 Descending Memphis Center
Sun 01:30:32 PM 34.5478 -88.8769 298° West 389 448 24,400 -2,100 Descending Memphis Center
Sun 01:31:32 PM 34.5906 -88.9644 301° West 388 447 22,200 -2,650 Descending Memphis Center
Sun 01:32:32 PM 34.6419 -89.0847 297° West 352 405 19,100 -2,850 Descending Memphis Center
Sun 01:33:32 PM 34.6847 -89.1878 297° West 341 392 16,500 -2,850 Descending Memphis Center
Sun 01:34:32 PM 34.7189 -89.2833 294° West 323 372 13,400 -3,200 Descending Memphis Center
Sun 01:35:32 PM 34.7156 -89.3844 268° West 302 348 10,100 -2,850 Descending Memphis Center
Sun 01:36:32 PM 34.7142 -89.4778 269° West 290 334 7,700 -2,200 Descending Memphis Center
Sun 01:37:32 PM 34.7106 -89.5614 267° West 284 327 5,700 -1,350 Descending Memphis Center
Sun 01:38:32 PM 34.7028 -89.6422 263° West 270 311 5,000 -600 Descending Memphis Center
Sun 01:39:32 PM 34.6989 -89.7156 266° West 230 265 4,500 -850 Descending Memphis Center
Sun 01:40:32 PM 34.6931 -89.7939 265° West 225 259 3,300 -750 Descending Memphis Center
Sun 01:41:32 PM 34.6933 -89.8644 270° West 218 251 3,000 -150 Descending Memphis Center
Sun 01:42:32 PM 34.7144 -89.9250 293° West 213 245 3,000  Level Memphis Center
Sun 01:43:32 PM 34.7625 -89.9578 331° Northwest 196 226 3,000 -500 Level Memphis Center
Sun 01:44:32 PM 34.8086 -89.9700 348° North 174 200 2,000 -500 Descending Memphis Center
Sun 01:45:32 PM 34.8503 -89.9700 360° North 163 188 2,000  Level Memphis Center
Sun 01:46:58 PM 34.9000 -89.9667 North 148 170 2,000 -84 Level KMEM
Sun 01:47:55 PM 34.9500 -89.9667 360° North 152 175 1,800 -400 Descending KMEM
Sun 01:48:58 PM 34.9833 -89.9667 360° North 129 148 1,200 -571 Descending KMEM
Sun 01:50:00 PM 35.0333 -89.9667 309° West  Level FlightAware Approximate
Sun 01:57:00 PM 35.0424 -89.9767 309° West  Level Estimated
Sun 01:58:00 PM 35.0424 -89.9767 309° West  Level Estimated
Sun 01:59:00 PM 35.0424 -89.9767 309° West  Level Estimated
Sun 02:00:00 PM 35.0424 -89.9767 309° West  Level Estimated
Sun 02:01:00 PM 35.0424 -89.9767 309° West  Level Estimated
Sun 02:02:00 PM 35.0424 -89.9767 309° West  Level Estimated

Login

Don't have an account? Register now (free) for customized features, flight alerts, and more!